Main page
METAR-TAF:

METAR-TAF

Airports :

Vadodara Airport

Vadodara, India

latitude: 22-19-46N, longitude: 73-13-10E, elevation: 39 m

Current weather observation

The report was made 3 hours and 45 minutes ago, at 16:00 UTC
Wind 6 kt from the North
Temperature 31°C
Humidity 36%
Pressure 1007 hPa
Visibility: 6000 m

METAR: VABO 191600Z 01006KT 6000 NSC 31/14 Q1007 NOSIG

Time: 01:15 (19:45 UTC)

Forecast

The report was made 5 hours and 45 minutes ago, at 14:00 UTC
Forecast valid from 19 at 15 UTC to 19 at 24 UTC
Wind 4 kt from the North
Visibility: 6000 m

TAF: VABO 191400Z 1915/1924 36004KT 6000 NSC

Weather observations and forecasts of more than 4000 airports (METAR and TAF reports).

The available stations are represented by yellow and red dots on the map.

Hover mouse over dot to see the name of the station.

Then click to see weather observations and forecasts.

To change the map : click on the green buttons with a black cross to zoom in, on the green button with a dash to zoom out, or on the green arrows for adjacent maps.


METAR-TAF: